Saturday, November 18, 2017, 11:49 PM EST
Back to Local

KDXR, Danbury Municipal Airport

Location: Danbury, CT, United States Lat: 41.367
Local Time: 11:49 PM EST ( 4:49 GMT) Lon: -73.483
Time Zone: US/Eastern Elev: 459 ft

Show me the last for .
Show Decoded

2017-11-18 22:53 METAR KDXR 190353Z AUTO 15006KT 9SM OVC110 09/08 A2946 RMK AO2 RAE29 SLP975
                 P0001 T00890078 =
2017-11-18 21:53 METAR KDXR 190253Z 18005KT 9SM -RA OVC100 09/07 A2952 RMK AO2 SLP998 P0001 60002
                 T00890072 58025 =
2017-11-18 20:53 METAR KDXR 190153Z 19006KT 8SM -RA FEW055 SCT070 OVC095 09/07 A2955 RMK AO2
                 RAE05B32 SLP008 P0001 T00890067 =
2017-11-18 19:53 METAR KDXR 190053Z 20007KT 10SM -RA BKN036 OVC044 09/07 A2958 RMK AO2 SLP019
                 P0000 T00940067 =
2017-11-18 18:53 METAR KDXR 182353Z 18006KT 8SM -RA BKN035 BKN050 OVC100 09/07 A2960 RMK AO2
                 PRESFR SLP025 P0006 60021 T00890067 10089 20078 58026 =
2017-11-18 17:53 METAR KDXR 182253Z 15003KT 5SM RA BR SCT038 BKN046 OVC080 08/07 A2964 RMK AO2
                 SLP040 P0007 T00830067 =
2017-11-18 16:53 METAR KDXR 182153Z 15004KT 6SM RA BR BKN046 OVC060 08/06 A2965 RMK AO2 SLP044
                 P0005 T00780061 =
2017-11-18 15:53 METAR KDXR 182053Z 18003KT 5SM -RA SCT050 OVC070 09/06 A2968 RMK AO2 SLP052
                 P0003 60003 T00890056 56031 =
2017-11-18 14:53 METAR KDXR 181953Z 18003KT 8SM -RA OVC090 09/04 A2969 RMK AO2 SLP056 P0000
                 T00890044 =
2017-11-18 13:53 METAR KDXR 181853Z 19008KT 10SM -RA FEW065 FEW080 OVC095 08/01 A2972 RMK AO2
                 RAE06B25 SLP067 P0000 T00830011 =
2017-11-18 12:53 METAR KDXR 181753Z 18005KT 10SM -RA FEW110 08/00 A2977 RMK AO2 RAB07E10B31
                 SLP084 P0000 60000 T00830000 10083 21050 56051 =
2017-11-18 11:53 METAR KDXR 181653Z 19008KT 10SM BKN130 08/M02 A2982 RMK AO2 RAB1555E02B42E52
                 SLP100 P0000 T00781017 =
2017-11-18 10:53 METAR KDXR 181553Z 20008KT 10SM FEW075 BKN090 BKN110 06/M03 A2987 RMK AO2 SLP118
                 T00611033 =
2017-11-18 09:53 METAR KDXR 181453Z 00000KT 10SM CLR 03/M03 A2993 RMK AO2 SLP136 T00281033 58015
                 =
2017-11-18 08:53 METAR KDXR 181353Z 00000KT 10SM CLR M01/M05 A2994 RMK AO2 SLP143 T10111050 =
2017-11-18 07:53 METAR KDXR 181253Z 00000KT 10SM CLR M03/M07 A2997 RMK AO2 SLP151 T10331072 =
2017-11-18 06:53 METAR KDXR 181153Z 00000KT 10SM CLR M04/M08 A2997 RMK AO2 SLP153 T10441078 11011
                 21061 58008 =
2017-11-18 05:53 METAR KDXR 181053Z AUTO 00000KT 10SM CLR M06/M08 A2999 RMK AO2 SLP160 T10561083
                 =
2017-11-18 04:53 METAR KDXR 180953Z AUTO 00000KT 10SM CLR M04/M08 A3000 RMK AO2 SLP161 T10441078
                 =
2017-11-18 03:53 METAR KDXR 180853Z AUTO 00000KT 10SM CLR M04/M08 A3000 RMK AO2 SLP160 T10391078
                 58017 =
2017-11-18 02:53 METAR KDXR 180753Z AUTO 00000KT 10SM CLR M04/M08 A3002 RMK AO2 SLP169 T10391083
                 =
2017-11-18 01:53 METAR KDXR 180653Z AUTO 27003KT 10SM CLR M02/M09 A3002 RMK AO2 SLP170 T10221089
                 =
2017-11-18 00:53 METAR KDXR 180553Z AUTO 24004KT 10SM CLR M03/M08 A3005 RMK AO2 SLP177 T10281083
                 10039 21028 56004 =
2017-11-17 23:53 METAR KDXR 180453Z AUTO 26004KT 10SM FEW110 M02/M09 A3005 RMK AO2 SLP178
                 T10171094 400891028 =

Support USWX by starting your Amazon purchase here.